Time;durP1;ratioP1;P1;durP2;ratioP2;P2;SDS_P1;SDS_P2;PMS_P1;PMS_P2;Temp;Humidity;BMP_temperature;BMP_pressure;BME280_temperature;BME280_humidity;BME280_pressure;Samples;Min_cycle;Max_cycle;Signal;HPM_P1;HPM_P2
2022/12/28 05:16:39;;;;;;;;;4.50;4.50;;;;;;;;6491006;39;9756;-62
2022/12/28 05:22:42;;;;;;;;;4.50;4.50;;;;;;;;6490538;39;8907;-62
2022/12/28 05:28:44;;;;;;;;;6.00;6.00;;;;;;;;6491690;39;8896;-62
2022/12/28 05:34:46;;;;;;;;;8.00;5.25;;;;;;;;6486179;46;9035;-61
2022/12/28 05:40:48;;;;;;;;;9.00;8.00;;;;;;;;6489739;39;8894;-61
2022/12/28 05:46:50;;;;;;;;;8.50;8.50;;;;;;;;6490794;46;8857;-61
2022/12/28 05:52:53;;;;;;;;;8.00;8.00;;;;;;;;6490454;39;8933;-62
2022/12/28 05:58:58;;;;;;;;;11.50;11.50;;;;;;;;6491156;46;8871;-63
2022/12/28 06:05:00;;;;;;;;;11.25;10.00;;;;;;;;6490039;36;9018;-62
2022/12/28 06:11:04;;;;;;;;;6.50;6.50;;;;;;;;6489720;46;8967;-62
2022/12/28 06:17:08;;;;;;;;;4.00;4.00;;;;;;;;6499279;39;8953;-62
2022/12/28 06:23:14;;;;;;;;;10.75;10.00;;;;;;;;6489410;31;8951;-62
2022/12/28 06:29:16;;;;;;;;;10.00;8.00;;;;;;;;6490763;39;9509;-61
2022/12/28 06:35:19;;;;;;;;;17.00;13.25;;;;;;;;6489705;39;8907;-64
2022/12/28 06:41:24;;;;;;;;;10.50;10.00;;;;;;;;6489870;46;8920;-61
2022/12/28 06:47:28;;;;;;;;;15.75;15.75;;;;;;;;6490647;39;8889;-62
2022/12/28 06:53:33;;;;;;;;;12.00;11.25;;;;;;;;6489996;39;8879;-62
2022/12/28 06:59:35;;;;;;;;;11.00;10.50;;;;;;;;6490498;39;8960;-62
2022/12/28 07:05:37;;;;;;;;;10.75;10.25;;;;;;;;6489664;39;9577;-62
2022/12/28 07:11:43;;;;;;;;;10.50;8.75;;;;;;;;6489827;39;9005;-63
2022/12/28 07:17:46;;;;;;;;;11.50;11.50;;;;;;;;6490875;39;9010;-63
2022/12/28 07:23:50;;;;;;;;;10.75;10.75;;;;;;;;6491122;39;9068;-62
2022/12/28 07:29:53;;;;;;;;;17.50;14.50;;;;;;;;6491634;31;8848;-62
2022/12/28 07:35:57;;;;;;;;;14.00;10.50;;;;;;;;6490154;31;8885;-63
2022/12/28 07:42:05;;;;;;;;;14.25;11.75;;;;;;;;6491399;31;8949;-64
2022/12/28 07:48:07;;;;;;;;;8.75;7.00;;;;;;;;6491416;31;9583;-61
2022/12/28 07:54:09;;;;;;;;;27.25;18.00;;;;;;;;6489358;31;9156;-62
2022/12/28 08:00:12;;;;;;;;;14.75;12.25;;;;;;;;6488562;39;8921;-63
2022/12/28 08:06:18;;;;;;;;;17.50;14.00;;;;;;;;6489822;39;9637;-60
2022/12/28 08:12:21;;;;;;;;;19.50;15.75;;;;;;;;6489774;39;8934;-62
2022/12/28 08:18:24;;;;;;;;;19.00;16.25;;;;;;;;6490041;31;8941;-61
2022/12/28 08:24:26;;;;;;;;;18.75;15.50;;;;;;;;6488168;31;8966;-62
2022/12/28 08:30:29;;;;;;;;;20.00;18.25;;;;;;;;6488790;39;9528;-62
2022/12/28 08:36:31;;;;;;;;;16.25;15.00;;;;;;;;6488995;46;8931;-63
2022/12/28 08:42:34;;;;;;;;;11.50;11.00;;;;;;;;6497748;39;8976;-62
2022/12/28 08:48:36;;;;;;;;;14.50;12.25;;;;;;;;6489135;39;8985;-64
2022/12/28 08:54:38;;;;;;;;;58.50;40.00;;;;;;;;6488415;31;8921;-62
2022/12/28 09:00:41;;;;;;;;;19.75;19.25;;;;;;;;6488988;39;8957;-62
2022/12/28 09:06:45;;;;;;;;;16.25;16.00;;;;;;;;6487255;31;9029;-62
2022/12/28 09:12:48;;;;;;;;;29.75;29.75;;;;;;;;6485817;39;9000;-62
2022/12/28 09:18:57;;;;;;;;;12.00;12.00;;;;;;;;6489367;31;9046;-62
2022/12/28 09:25:00;;;;;;;;;15.50;13.00;;;;;;;;6487842;47;8978;-60
2022/12/28 09:31:04;;;;;;;;;13.25;10.50;;;;;;;;6486650;47;8948;-60
2022/12/28 09:37:07;;;;;;;;;16.50;16.00;;;;;;;;6486955;39;10097;-64
2022/12/28 09:43:28;;;;;;;;;15.75;15.00;;;;;;;;6489223;39;8962;-62
2022/12/28 09:50:10;;;;;;;;;17.75;13.75;;;;;;;;6490115;39;9631;-62
2022/12/28 09:56:35;;;;;;;;;11.25;11.25;;;;;;;;6488436;39;9076;-62
2022/12/28 10:02:40;;;;;;;;;16.00;13.75;;;;;;;;6487881;46;8980;-62
2022/12/28 10:08:51;;;;;;;;;9.25;9.00;;;;;;;;6487333;31;9028;-60
2022/12/28 10:15:00;;;;;;;;;28.25;22.50;;;;;;;;6488529;46;9083;-62
2022/12/28 10:21:04;;;;;;;;;14.25;13.50;;;;;;;;6487446;46;8891;-62
2022/12/28 10:27:19;;;;;;;;;38.75;32.00;;;;;;;;6486987;39;8964;-62
2022/12/28 10:33:21;;;;;;;;;10.50;9.50;;;;;;;;6487831;31;8959;-63
2022/12/28 10:39:28;;;;;;;;;9.00;9.00;;;;;;;;6486167;46;8956;-63
2022/12/28 10:45:46;;;;;;;;;8.75;8.75;;;;;;;;6487176;39;9104;-64
2022/12/28 10:52:17;;;;;;;;;24.25;18.50;;;;;;;;6487634;31;8929;-62
2022/12/28 10:58:22;;;;;;;;;19.75;16.50;;;;;;;;6489040;39;8947;-64
2022/12/28 11:04:35;;;;;;;;;66.25;51.00;;;;;;;;6487101;46;8977;-63
2022/12/28 11:10:39;;;;;;;;;16.00;13.50;;;;;;;;6487195;31;8951;-62
2022/12/28 11:16:43;;;;;;;;;20.25;20.25;;;;;;;;6486088;39;8984;-63
2022/12/28 11:22:46;;;;;;;;;33.25;29.25;;;;;;;;6487276;39;9244;-62
2022/12/28 11:28:50;;;;;;;;;6.00;6.00;;;;;;;;6486898;39;8933;-62
2022/12/28 11:34:56;;;;;;;;;33.25;29.75;;;;;;;;6486643;46;9160;-62
2022/12/28 11:40:59;;;;;;;;;10.00;10.00;;;;;;;;6486356;31;9063;-63
2022/12/28 11:47:15;;;;;;;;;13.00;11.50;;;;;;;;6485915;39;9023;-63
2022/12/28 11:53:42;;;;;;;;;13.75;12.50;;;;;;;;6486369;46;9031;-63
2022/12/28 11:59:44;;;;;;;;;20.50;19.75;;;;;;;;6486196;39;9691;-63
2022/12/28 12:05:48;;;;;;;;;11.25;9.75;;;;;;;;6485895;39;8974;-63
2022/12/28 12:12:23;;;;;;;;;12.50;11.00;;;;;;;;6487423;39;8917;-61
2022/12/28 12:18:27;;;;;;;;;26.50;26.50;;;;;;;;6486118;39;8953;-63
2022/12/28 12:24:46;;;;;;;;;11.50;10.75;;;;;;;;6487877;39;8996;-60
2022/12/28 12:30:54;;;;;;;;;35.50;31.75;;;;;;;;6486117;39;8941;-62
2022/12/28 12:37:34;;;;;;;;;25.50;23.50;;;;;;;;6485730;39;8942;-62
2022/12/28 12:43:49;;;;;;;;;27.50;22.00;;;;;;;;6486435;39;8991;-63
2022/12/28 12:49:56;;;;;;;;;8.75;8.50;;;;;;;;6485282;39;9031;-64
2022/12/28 12:56:21;;;;;;;;;6.00;6.00;;;;;;;;6487423;47;8857;-63
2022/12/28 13:02:51;;;;;;;;;21.50;19.50;;;;;;;;6487749;39;8970;-63
2022/12/28 13:08:58;;;;;;;;;6.00;6.00;;;;;;;;6495254;31;8935;-64
2022/12/28 13:15:15;;;;;;;;;14.75;13.75;;;;;;;;6489596;39;8952;-63
2022/12/28 13:21:22;;;;;;;;;10.00;9.25;;;;;;;;6489185;39;8893;-62
2022/12/28 13:27:34;;;;;;;;;30.25;25.25;;;;;;;;6487258;39;9000;-62
2022/12/28 13:33:37;;;;;;;;;12.50;11.50;;;;;;;;6489605;46;8896;-62
2022/12/28 13:39:44;;;;;;;;;9.25;6.00;;;;;;;;6489485;31;8924;-63
2022/12/28 13:46:01;;;;;;;;;16.00;12.50;;;;;;;;6488944;39;9003;-62
2022/12/28 13:52:12;;;;;;;;;10.00;10.00;;;;;;;;6489935;39;8980;-63
2022/12/28 13:58:27;;;;;;;;;8.25;8.25;;;;;;;;6487950;31;8954;-64
2022/12/28 14:04:31;;;;;;;;;20.25;18.75;;;;;;;;6489345;31;8992;-64
2022/12/28 14:10:55;;;;;;;;;11.50;11.50;;;;;;;;6488220;46;8865;-64
2022/12/28 14:16:57;;;;;;;;;15.00;14.75;;;;;;;;6488774;39;8949;-63
2022/12/28 14:23:28;;;;;;;;;10.00;10.00;;;;;;;;6489318;39;8969;-64
2022/12/28 14:29:32;;;;;;;;;7.50;6.00;;;;;;;;6489238;39;9695;-63
2022/12/28 14:35:39;;;;;;;;;11.75;9.75;;;;;;;;6488731;31;8972;-63
2022/12/28 14:41:45;;;;;;;;;16.75;16.75;;;;;;;;6488314;39;8928;-63
2022/12/28 14:47:55;;;;;;;;;11.00;11.00;;;;;;;;6488661;31;9003;-62
2022/12/28 14:54:18;;;;;;;;;11.50;11.50;;;;;;;;6487930;46;8956;-62
2022/12/28 15:00:22;;;;;;;;;15.25;14.50;;;;;;;;6489101;31;8853;-62
2022/12/28 15:06:28;;;;;;;;;15.00;15.00;;;;;;;;6488233;39;9063;-64
2022/12/28 15:12:32;;;;;;;;;15.25;15.00;;;;;;;;6488960;31;8829;-63
2022/12/28 15:18:42;;;;;;;;;15.00;11.00;;;;;;;;6487769;39;8901;-62
2022/12/28 15:24:45;;;;;;;;;11.75;11.75;;;;;;;;6494718;31;8877;-63
2022/12/28 15:30:51;;;;;;;;;22.00;20.00;;;;;;;;6489299;39;8885;-64
2022/12/28 15:36:53;;;;;;;;;20.00;20.00;;;;;;;;6486910;46;8976;-61
2022/12/28 15:42:55;;;;;;;;;22.00;21.00;;;;;;;;6487591;46;8933;-63
2022/12/28 15:49:00;;;;;;;;;33.75;27.00;;;;;;;;6487633;39;9505;-62
2022/12/28 15:55:04;;;;;;;;;31.25;28.00;;;;;;;;6487471;31;8962;-62
2022/12/28 16:01:06;;;;;;;;;37.50;32.25;;;;;;;;6488268;39;8877;-62
2022/12/28 16:07:10;;;;;;;;;31.25;31.25;;;;;;;;6486932;31;8954;-63
2022/12/28 16:13:13;;;;;;;;;29.75;25.00;;;;;;;;6488217;39;8991;-61
2022/12/28 16:19:15;;;;;;;;;22.00;21.00;;;;;;;;6487051;39;8903;-62
2022/12/28 16:25:17;;;;;;;;;31.25;24.25;;;;;;;;6486291;39;8957;-64
2022/12/28 16:31:27;;;;;;;;;24.50;22.75;;;;;;;;6488623;31;9903;-61
2022/12/28 16:37:29;;;;;;;;;30.00;27.75;;;;;;;;6487553;39;8895;-62
2022/12/28 16:43:33;;;;;;;;;31.75;27.50;;;;;;;;6487465;47;8956;-61
2022/12/28 16:49:38;;;;;;;;;28.75;26.75;;;;;;;;6486187;47;8948;-62
2022/12/28 16:55:41;;;;;;;;;30.50;29.50;;;;;;;;6486299;47;8994;-62
2022/12/28 17:01:44;;;;;;;;;32.50;26.75;;;;;;;;6488140;31;8940;-63
2022/12/28 17:07:47;;;;;;;;;29.25;27.50;;;;;;;;6487003;31;9050;-61
2022/12/28 17:13:50;;;;;;;;;32.75;27.75;;;;;;;;6486911;39;8928;-63
2022/12/28 17:19:53;;;;;;;;;40.25;35.50;;;;;;;;6487348;39;9589;-62
2022/12/28 17:25:55;;;;;;;;;50.00;46.00;;;;;;;;6486936;39;9553;-62
2022/12/28 17:31:57;;;;;;;;;49.00;43.25;;;;;;;;6487145;31;8910;-63
2022/12/28 17:38:00;;;;;;;;;56.00;47.25;;;;;;;;6485525;31;8881;-62
2022/12/28 17:44:04;;;;;;;;;55.50;44.25;;;;;;;;6486675;31;8923;-61
2022/12/28 17:50:08;;;;;;;;;51.00;44.50;;;;;;;;6488602;39;8873;-62
2022/12/28 17:56:13;;;;;;;;;52.75;46.50;;;;;;;;6487206;39;8945;-63
2022/12/28 18:02:16;;;;;;;;;61.33;50.00;;;;;;;;6488978;39;8889;-62
2022/12/28 18:08:20;;;;;;;;;59.00;51.00;;;;;;;;6307402;39;10000631;-62
2022/12/28 18:14:23;;;;;;;;;72.75;58.25;;;;;;;;6489500;39;8937;-62
2022/12/28 18:20:26;;;;;;;;;75.50;60.00;;;;;;;;6488414;39;8914;-62
2022/12/28 18:26:28;;;;;;;;;74.00;59.33;;;;;;;;6488152;39;9506;-61
2022/12/28 18:32:31;;;;;;;;;77.25;60.75;;;;;;;;6489812;31;9010;-63
2022/12/28 18:38:39;;;;;;;;;73.50;58.50;;;;;;;;6487482;31;9004;-62
2022/12/28 18:44:46;;;;;;;;;74.50;59.50;;;;;;;;6488015;31;8918;-64
2022/12/28 18:51:14;;;;;;;;;73.00;54.00;;;;;;;;6487735;39;9452;-62
2022/12/28 18:57:16;;;;;;;;;68.67;56.33;;;;;;;;6488428;31;9499;-64
2022/12/28 19:03:19;;;;;;;;;63.75;53.75;;;;;;;;6488623;39;8960;-62
2022/12/28 19:09:21;;;;;;;;;62.75;50.25;;;;;;;;6488075;31;9525;-63
2022/12/28 19:15:25;;;;;;;;;73.25;59.75;;;;;;;;6488135;39;9543;-62
2022/12/28 19:21:30;;;;;;;;;72.00;59.67;;;;;;;;6487859;31;8910;-64
2022/12/28 19:27:32;;;;;;;;;68.25;57.50;;;;;;;;6487940;39;9037;-62
2022/12/28 19:33:37;;;;;;;;;66.25;53.50;;;;;;;;6488151;39;8896;-62
2022/12/28 19:39:39;;;;;;;;;72.00;56.50;;;;;;;;6487688;31;8881;-62
2022/12/28 19:45:42;;;;;;;;;69.00;58.50;;;;;;;;6488935;39;8883;-64
2022/12/28 19:51:45;;;;;;;;;68.75;55.50;;;;;;;;6487713;31;8857;-62
2022/12/28 19:57:49;;;;;;;;;68.50;57.25;;;;;;;;6488676;39;8906;-63
2022/12/28 20:03:54;;;;;;;;;68.25;52.75;;;;;;;;6487172;39;8944;-62
2022/12/28 20:09:57;;;;;;;;;61.50;52.75;;;;;;;;6533392;36;8919;-63
2022/12/28 20:16:00;;;;;;;;;73.00;57.33;;;;;;;;6491955;46;8941;-62
2022/12/28 20:22:02;;;;;;;;;67.00;57.67;;;;;;;;6487062;39;8971;-61
2022/12/28 20:28:04;;;;;;;;;73.00;58.00;;;;;;;;6487531;31;8929;-63
2022/12/28 20:34:06;;;;;;;;;64.50;50.50;;;;;;;;6486919;31;8914;-63
2022/12/28 20:40:09;;;;;;;;;64.33;52.33;;;;;;;;6487507;39;8877;-62
2022/12/28 20:46:12;;;;;;;;;54.75;45.25;;;;;;;;6487358;46;8911;-62
2022/12/28 20:52:14;;;;;;;;;53.00;45.00;;;;;;;;6487501;39;8853;-63
2022/12/28 20:58:17;;;;;;;;;50.75;46.00;;;;;;;;6487353;31;9027;-63
2022/12/28 21:04:19;;;;;;;;;63.25;49.50;;;;;;;;6486776;47;8952;-61
2022/12/28 21:10:22;;;;;;;;;56.00;48.75;;;;;;;;6486593;47;8883;-61
2022/12/28 21:16:24;;;;;;;;;54.00;46.00;;;;;;;;6486480;39;8956;-62
2022/12/28 21:22:27;;;;;;;;;48.00;43.25;;;;;;;;6487316;39;8989;-63
2022/12/28 21:28:29;;;;;;;;;60.33;49.67;;;;;;;;6487234;39;8980;-62
2022/12/28 21:34:32;;;;;;;;;61.75;50.00;;;;;;;;6487701;39;9527;-64
2022/12/28 21:40:40;;;;;;;;;46.00;39.25;;;;;;;;6488835;46;8885;-60
2022/12/28 21:46:43;;;;;;;;;66.75;51.75;;;;;;;;6488882;39;9578;-62
2022/12/28 21:52:45;;;;;;;;;67.50;55.00;;;;;;;;6488334;31;8897;-64
2022/12/28 21:58:48;;;;;;;;;64.00;54.00;;;;;;;;6489036;39;8962;-62
2022/12/28 22:18:02;;;;;;;;;62.67;52.00;;;;;;;;6486958;31;8921;-61
2022/12/28 22:24:05;;;;;;;;;70.00;57.67;;;;;;;;6488150;31;8934;-61
2022/12/28 22:30:08;;;;;;;;;72.00;57.00;;;;;;;;6487679;39;8944;-61
2022/12/28 22:36:19;;;;;;;;;67.00;51.33;;;;;;;;6488576;46;8887;-62
2022/12/28 22:42:23;;;;;;;;;68.33;56.00;;;;;;;;6489910;39;8943;-62
2022/12/28 22:48:26;;;;;;;;;65.33;52.67;;;;;;;;6491489;46;8919;-63
2022/12/28 22:54:29;;;;;;;;;69.33;56.33;;;;;;;;6490954;31;8899;-61
2022/12/28 23:00:31;;;;;;;;;72.00;58.00;;;;;;;;6487942;39;8914;-62
2022/12/28 23:06:34;;;;;;;;;72.33;58.00;;;;;;;;6487814;31;8944;-62
2022/12/28 23:12:37;;;;;;;;;65.67;54.67;;;;;;;;6487718;31;8931;-61
2022/12/28 23:31:21;;;;;;;;;70.00;54.33;;;;;;;;6487422;39;8904;-62
2022/12/28 23:37:23;;;;;;;;;69.33;58.00;;;;;;;;6488557;31;8883;-62
2022/12/28 23:43:25;;;;;;;;;67.00;54.67;;;;;;;;6487482;31;8877;-62
2022/12/28 23:49:27;;;;;;;;;66.00;56.33;;;;;;;;6487293;46;8970;-61
2022/12/28 23:55:31;;;;;;;;;69.00;54.00;;;;;;;;6487728;39;9048;-63
